sensor_id;sensor_type;location;lat;lon;timestamp;P1;durP1;ratioP1;P2;durP2;ratioP2
7375;SDS011;3728;42.266;24.944;2023-10-13T00:02:04;9.83;;;4.17;;
7375;SDS011;3728;42.266;24.944;2023-10-13T00:04:32;7.73;;;4.10;;
7375;SDS011;3728;42.266;24.944;2023-10-13T00:07:02;5.77;;;3.83;;
7375;SDS011;3728;42.266;24.944;2023-10-13T00:09:31;10.00;;;3.80;;
7375;SDS011;3728;42.266;24.944;2023-10-13T00:11:59;8.87;;;4.03;;
7375;SDS011;3728;42.266;24.944;2023-10-13T00:14:27;8.23;;;3.80;;
7375;SDS011;3728;42.266;24.944;2023-10-13T00:17:01;11.43;;;3.67;;
7375;SDS011;3728;42.266;24.944;2023-10-13T00:19:31;14.70;;;5.20;;
7375;SDS011;3728;42.266;24.944;2023-10-13T00:22:06;21.10;;;6.70;;
7375;SDS011;3728;42.266;24.944;2023-10-13T00:24:39;19.47;;;7.07;;
7375;SDS011;3728;42.266;24.944;2023-10-13T00:27:18;16.83;;;6.17;;
7375;SDS011;3728;42.266;24.944;2023-10-13T00:29:59;10.23;;;6.17;;
7375;SDS011;3728;42.266;24.944;2023-10-13T00:32:42;20.07;;;6.57;;
7375;SDS011;3728;42.266;24.944;2023-10-13T00:35:13;16.07;;;6.80;;
7375;SDS011;3728;42.266;24.944;2023-10-13T00:37:56;17.03;;;6.90;;
7375;SDS011;3728;42.266;24.944;2023-10-13T00:40:30;19.07;;;6.70;;
7375;SDS011;3728;42.266;24.944;2023-10-13T00:42:59;14.13;;;6.37;;
7375;SDS011;3728;42.266;24.944;2023-10-13T00:45:47;15.57;;;6.40;;
7375;SDS011;3728;42.266;24.944;2023-10-13T00:48:32;10.77;;;6.30;;
7375;SDS011;3728;42.266;24.944;2023-10-13T00:51:12;12.77;;;6.87;;
7375;SDS011;3728;42.266;24.944;2023-10-13T00:53:45;14.27;;;6.40;;
7375;SDS011;3728;42.266;24.944;2023-10-13T00:56:14;14.20;;;6.83;;
7375;SDS011;3728;42.266;24.944;2023-10-13T00:58:45;13.60;;;6.37;;
7375;SDS011;3728;42.266;24.944;2023-10-13T01:01:13;14.13;;;6.10;;
7375;SDS011;3728;42.266;24.944;2023-10-13T01:03:56;17.40;;;6.93;;
7375;SDS011;3728;42.266;24.944;2023-10-13T01:06:27;15.90;;;8.00;;
7375;SDS011;3728;42.266;24.944;2023-10-13T01:09:03;17.00;;;6.70;;
7375;SDS011;3728;42.266;24.944;2023-10-13T01:11:46;12.70;;;6.07;;
7375;SDS011;3728;42.266;24.944;2023-10-13T01:14:19;10.33;;;6.07;;
7375;SDS011;3728;42.266;24.944;2023-10-13T01:16:49;9.77;;;5.60;;
7375;SDS011;3728;42.266;24.944;2023-10-13T01:19:22;20.90;;;7.20;;
7375;SDS011;3728;42.266;24.944;2023-10-13T01:21:54;20.20;;;7.00;;
7375;SDS011;3728;42.266;24.944;2023-10-13T01:24:29;20.20;;;7.10;;
7375;SDS011;3728;42.266;24.944;2023-10-13T01:27:01;16.17;;;6.27;;
7375;SDS011;3728;42.266;24.944;2023-10-13T01:29:47;18.67;;;5.93;;
7375;SDS011;3728;42.266;24.944;2023-10-13T01:32:24;18.13;;;6.37;;
7375;SDS011;3728;42.266;24.944;2023-10-13T01:34:53;21.17;;;6.50;;
7375;SDS011;3728;42.266;24.944;2023-10-13T01:37:31;15.83;;;6.57;;
7375;SDS011;3728;42.266;24.944;2023-10-13T01:39:59;15.50;;;6.40;;
7375;SDS011;3728;42.266;24.944;2023-10-13T01:42:26;16.37;;;6.30;;
7375;SDS011;3728;42.266;24.944;2023-10-13T01:44:57;23.37;;;6.87;;
7375;SDS011;3728;42.266;24.944;2023-10-13T01:47:32;17.30;;;6.30;;
7375;SDS011;3728;42.266;24.944;2023-10-13T01:50:00;14.93;;;6.43;;
7375;SDS011;3728;42.266;24.944;2023-10-13T01:52:40;17.53;;;7.73;;
7375;SDS011;3728;42.266;24.944;2023-10-13T01:55:08;37.43;;;8.23;;
7375;SDS011;3728;42.266;24.944;2023-10-13T01:57:38;24.70;;;8.30;;
7375;SDS011;3728;42.266;24.944;2023-10-13T02:00:08;16.60;;;8.10;;
7375;SDS011;3728;42.266;24.944;2023-10-13T02:02:45;30.17;;;8.00;;
7375;SDS011;3728;42.266;24.944;2023-10-13T02:05:17;32.60;;;9.13;;
7375;SDS011;3728;42.266;24.944;2023-10-13T02:07:44;37.10;;;11.43;;
7375;SDS011;3728;42.266;24.944;2023-10-13T02:10:14;21.67;;;11.70;;
7375;SDS011;3728;42.266;24.944;2023-10-13T02:12:42;32.27;;;12.83;;
7375;SDS011;3728;42.266;24.944;2023-10-13T02:15:13;33.33;;;14.83;;
7375;SDS011;3728;42.266;24.944;2023-10-13T02:17:48;28.60;;;15.03;;
7375;SDS011;3728;42.266;24.944;2023-10-13T02:20:22;32.33;;;14.23;;
7375;SDS011;3728;42.266;24.944;2023-10-13T02:22:51;23.67;;;11.43;;
7375;SDS011;3728;42.266;24.944;2023-10-13T02:25:19;16.97;;;9.23;;
7375;SDS011;3728;42.266;24.944;2023-10-13T02:28:03;11.70;;;7.90;;
7375;SDS011;3728;42.266;24.944;2023-10-13T02:30:43;17.57;;;8.57;;
7375;SDS011;3728;42.266;24.944;2023-10-13T02:33:12;14.90;;;6.70;;
7375;SDS011;3728;42.266;24.944;2023-10-13T02:35:41;9.17;;;6.33;;
7375;SDS011;3728;42.266;24.944;2023-10-13T02:38:10;14.23;;;7.53;;
7375;SDS011;3728;42.266;24.944;2023-10-13T02:40:38;13.47;;;7.30;;
7375;SDS011;3728;42.266;24.944;2023-10-13T02:43:06;14.60;;;7.23;;
7375;SDS011;3728;42.266;24.944;2023-10-13T02:45:34;15.43;;;7.70;;
7375;SDS011;3728;42.266;24.944;2023-10-13T02:48:05;21.43;;;8.53;;
7375;SDS011;3728;42.266;24.944;2023-10-13T02:50:45;13.07;;;7.97;;
7375;SDS011;3728;42.266;24.944;2023-10-13T02:53:23;31.93;;;13.50;;
7375;SDS011;3728;42.266;24.944;2023-10-13T02:55:55;22.90;;;15.27;;
7375;SDS011;3728;42.266;24.944;2023-10-13T02:58:25;30.33;;;19.33;;
7375;SDS011;3728;42.266;24.944;2023-10-13T03:01:05;57.90;;;41.40;;
7375;SDS011;3728;42.266;24.944;2023-10-13T03:03:50;46.17;;;34.73;;
7375;SDS011;3728;42.266;24.944;2023-10-13T03:06:21;45.47;;;32.23;;
7375;SDS011;3728;42.266;24.944;2023-10-13T03:08:53;48.23;;;28.17;;
7375;SDS011;3728;42.266;24.944;2023-10-13T03:11:23;50.37;;;29.23;;
7375;SDS011;3728;42.266;24.944;2023-10-13T03:13:51;47.07;;;25.93;;
7375;SDS011;3728;42.266;24.944;2023-10-13T03:16:19;46.30;;;22.40;;
7375;SDS011;3728;42.266;24.944;2023-10-13T03:18:47;46.97;;;21.67;;
7375;SDS011;3728;42.266;24.944;2023-10-13T03:21:20;45.93;;;21.23;;
7375;SDS011;3728;42.266;24.944;2023-10-13T03:23:56;38.87;;;22.03;;
7375;SDS011;3728;42.266;24.944;2023-10-13T03:26:33;39.87;;;19.57;;
7375;SDS011;3728;42.266;24.944;2023-10-13T03:29:03;55.90;;;26.27;;
7375;SDS011;3728;42.266;24.944;2023-10-13T03:31:39;58.77;;;27.33;;
7375;SDS011;3728;42.266;24.944;2023-10-13T03:34:07;46.33;;;25.97;;
7375;SDS011;3728;42.266;24.944;2023-10-13T03:36:38;55.67;;;26.30;;
7375;SDS011;3728;42.266;24.944;2023-10-13T03:39:24;62.57;;;24.77;;
7375;SDS011;3728;42.266;24.944;2023-10-13T03:41:57;70.47;;;23.80;;
7375;SDS011;3728;42.266;24.944;2023-10-13T03:44:26;63.90;;;24.90;;
7375;SDS011;3728;42.266;24.944;2023-10-13T03:46:57;68.53;;;25.07;;
7375;SDS011;3728;42.266;24.944;2023-10-13T03:49:35;49.73;;;25.50;;
7375;SDS011;3728;42.266;24.944;2023-10-13T03:52:04;55.83;;;29.30;;
7375;SDS011;3728;42.266;24.944;2023-10-13T03:54:32;44.37;;;28.43;;
7375;SDS011;3728;42.266;24.944;2023-10-13T03:57:01;54.63;;;24.73;;
7375;SDS011;3728;42.266;24.944;2023-10-13T03:59:37;66.13;;;26.53;;
7375;SDS011;3728;42.266;24.944;2023-10-13T04:02:06;64.40;;;26.27;;
7375;SDS011;3728;42.266;24.944;2023-10-13T04:04:43;100.30;;;27.60;;
7375;SDS011;3728;42.266;24.944;2023-10-13T04:07:19;58.13;;;25.60;;
7375;SDS011;3728;42.266;24.944;2023-10-13T04:09:52;88.40;;;23.43;;
7375;SDS011;3728;42.266;24.944;2023-10-13T04:12:40;94.70;;;23.77;;
7375;SDS011;3728;42.266;24.944;2023-10-13T04:15:26;42.73;;;15.73;;
7375;SDS011;3728;42.266;24.944;2023-10-13T04:18:08;27.90;;;12.60;;
7375;SDS011;3728;42.266;24.944;2023-10-13T04:21:00;23.63;;;9.80;;
7375;SDS011;3728;42.266;24.944;2023-10-13T04:23:45;18.93;;;7.87;;
7375;SDS011;3728;42.266;24.944;2023-10-13T04:26:31;14.67;;;7.23;;
7375;SDS011;3728;42.266;24.944;2023-10-13T04:29:09;9.63;;;5.83;;
7375;SDS011;3728;42.266;24.944;2023-10-13T04:31:57;8.87;;;5.20;;
7375;SDS011;3728;42.266;24.944;2023-10-13T04:34:27;8.30;;;5.33;;
7375;SDS011;3728;42.266;24.944;2023-10-13T04:37:04;10.23;;;6.07;;
7375;SDS011;3728;42.266;24.944;2023-10-13T04:39:58;13.33;;;7.33;;
7375;SDS011;3728;42.266;24.944;2023-10-13T04:42:36;18.90;;;7.20;;
7375;SDS011;3728;42.266;24.944;2023-10-13T04:45:16;9.37;;;5.47;;
7375;SDS011;3728;42.266;24.944;2023-10-13T04:47:57;17.50;;;5.43;;
7375;SDS011;3728;42.266;24.944;2023-10-13T04:50:58;9.30;;;5.10;;
7375;SDS011;3728;42.266;24.944;2023-10-13T04:53:45;14.43;;;4.83;;
7375;SDS011;3728;42.266;24.944;2023-10-13T04:56:32;10.57;;;4.27;;
7375;SDS011;3728;42.266;24.944;2023-10-13T04:59:18;15.53;;;5.80;;
7375;SDS011;3728;42.266;24.944;2023-10-13T05:02:24;19.13;;;6.27;;
7375;SDS011;3728;42.266;24.944;2023-10-13T05:05:13;13.20;;;4.97;;
7375;SDS011;3728;42.266;24.944;2023-10-13T05:07:45;20.07;;;4.63;;
7375;SDS011;3728;42.266;24.944;2023-10-13T05:10:33;10.53;;;5.30;;
7375;SDS011;3728;42.266;24.944;2023-10-13T05:13:21;19.37;;;6.30;;
7375;SDS011;3728;42.266;24.944;2023-10-13T05:16:07;23.40;;;7.10;;
7375;SDS011;3728;42.266;24.944;2023-10-13T05:18:53;21.17;;;6.17;;
7375;SDS011;3728;42.266;24.944;2023-10-13T05:21:42;15.07;;;5.57;;
7375;SDS011;3728;42.266;24.944;2023-10-13T05:24:28;11.47;;;4.77;;
7375;SDS011;3728;42.266;24.944;2023-10-13T05:27:15;10.23;;;4.57;;
7375;SDS011;3728;42.266;24.944;2023-10-13T05:30:01;9.60;;;4.87;;
7375;SDS011;3728;42.266;24.944;2023-10-13T05:32:47;12.73;;;5.80;;
7375;SDS011;3728;42.266;24.944;2023-10-13T05:35:34;14.57;;;5.93;;
7375;SDS011;3728;42.266;24.944;2023-10-13T05:38:40;12.73;;;5.43;;
7375;SDS011;3728;42.266;24.944;2023-10-13T05:41:26;17.67;;;8.67;;
7375;SDS011;3728;42.266;24.944;2023-10-13T05:44:12;15.37;;;7.70;;
7375;SDS011;3728;42.266;24.944;2023-10-13T05:46:58;27.43;;;7.63;;
7375;SDS011;3728;42.266;24.944;2023-10-13T05:49:48;9.57;;;6.47;;
7375;SDS011;3728;42.266;24.944;2023-10-13T05:52:48;15.57;;;6.47;;
7375;SDS011;3728;42.266;24.944;2023-10-13T05:55:26;15.57;;;7.47;;
7375;SDS011;3728;42.266;24.944;2023-10-13T05:58:13;26.13;;;8.20;;
7375;SDS011;3728;42.266;24.944;2023-10-13T06:01:00;21.83;;;8.63;;
7375;SDS011;3728;42.266;24.944;2023-10-13T06:03:46;23.40;;;10.13;;
7375;SDS011;3728;42.266;24.944;2023-10-13T06:06:32;20.50;;;11.50;;
7375;SDS011;3728;42.266;24.944;2023-10-13T06:09:18;28.33;;;13.40;;
7375;SDS011;3728;42.266;24.944;2023-10-13T06:12:04;33.90;;;15.43;;
7375;SDS011;3728;42.266;24.944;2023-10-13T06:14:50;35.17;;;17.83;;
7375;SDS011;3728;42.266;24.944;2023-10-13T06:17:36;30.87;;;18.60;;
7375;SDS011;3728;42.266;24.944;2023-10-13T06:20:22;33.83;;;16.53;;
7375;SDS011;3728;42.266;24.944;2023-10-13T06:23:08;71.60;;;18.27;;
7375;SDS011;3728;42.266;24.944;2023-10-13T06:25:55;28.47;;;14.00;;
7375;SDS011;3728;42.266;24.944;2023-10-13T06:28:41;25.53;;;12.53;;
7375;SDS011;3728;42.266;24.944;2023-10-13T06:31:09;27.67;;;12.87;;
7375;SDS011;3728;42.266;24.944;2023-10-13T06:33:49;25.77;;;13.97;;
7375;SDS011;3728;42.266;24.944;2023-10-13T06:36:16;27.93;;;17.43;;
7375;SDS011;3728;42.266;24.944;2023-10-13T06:38:45;27.30;;;14.23;;
7375;SDS011;3728;42.266;24.944;2023-10-13T06:41:22;25.27;;;14.10;;
7375;SDS011;3728;42.266;24.944;2023-10-13T06:44:06;21.13;;;12.70;;
7375;SDS011;3728;42.266;24.944;2023-10-13T06:46:41;21.53;;;14.47;;
7375;SDS011;3728;42.266;24.944;2023-10-13T06:49:10;30.33;;;13.90;;
7375;SDS011;3728;42.266;24.944;2023-10-13T06:51:39;31.27;;;13.27;;
7375;SDS011;3728;42.266;24.944;2023-10-13T06:54:08;26.30;;;11.97;;
7375;SDS011;3728;42.266;24.944;2023-10-13T06:56:37;24.97;;;10.53;;
7375;SDS011;3728;42.266;24.944;2023-10-13T06:59:08;110.17;;;15.50;;
7375;SDS011;3728;42.266;24.944;2023-10-13T07:01:36;18.93;;;7.37;;
7375;SDS011;3728;42.266;24.944;2023-10-13T07:04:09;23.53;;;8.60;;
7375;SDS011;3728;42.266;24.944;2023-10-13T07:06:41;23.73;;;7.77;;
7375;SDS011;3728;42.266;24.944;2023-10-13T07:09:21;18.37;;;6.20;;
7375;SDS011;3728;42.266;24.944;2023-10-13T07:12:15;21.13;;;7.43;;
7375;SDS011;3728;42.266;24.944;2023-10-13T07:14:46;14.20;;;5.70;;
7375;SDS011;3728;42.266;24.944;2023-10-13T07:17:19;22.33;;;6.87;;
7375;SDS011;3728;42.266;24.944;2023-10-13T07:19:53;10.57;;;6.53;;
7375;SDS011;3728;42.266;24.944;2023-10-13T07:22:28;19.87;;;6.90;;
7375;SDS011;3728;42.266;24.944;2023-10-13T07:24:55;26.90;;;7.33;;
7375;SDS011;3728;42.266;24.944;2023-10-13T07:27:24;24.03;;;6.90;;
7375;SDS011;3728;42.266;24.944;2023-10-13T07:29:53;14.23;;;5.67;;
7375;SDS011;3728;42.266;24.944;2023-10-13T07:32:23;16.47;;;5.27;;
7375;SDS011;3728;42.266;24.944;2023-10-13T07:34:53;12.53;;;4.13;;
7375;SDS011;3728;42.266;24.944;2023-10-13T07:37:24;17.30;;;4.83;;
7375;SDS011;3728;42.266;24.944;2023-10-13T07:39:57;6.37;;;3.73;;
7375;SDS011;3728;42.266;24.944;2023-10-13T07:42:25;9.90;;;3.27;;
7375;SDS011;3728;42.266;24.944;2023-10-13T07:45:06;10.90;;;3.60;;
7375;SDS011;3728;42.266;24.944;2023-10-13T07:47:34;8.83;;;3.40;;
7375;SDS011;3728;42.266;24.944;2023-10-13T07:50:02;8.37;;;3.30;;
7375;SDS011;3728;42.266;24.944;2023-10-13T07:52:33;11.20;;;3.57;;
7375;SDS011;3728;42.266;24.944;2023-10-13T07:55:03;6.37;;;2.87;;
7375;SDS011;3728;42.266;24.944;2023-10-13T07:57:39;5.20;;;2.83;;
7375;SDS011;3728;42.266;24.944;2023-10-13T08:00:21;3.13;;;2.43;;
7375;SDS011;3728;42.266;24.944;2023-10-13T08:03:05;4.50;;;2.47;;
7375;SDS011;3728;42.266;24.944;2023-10-13T08:05:55;5.90;;;3.13;;
7375;SDS011;3728;42.266;24.944;2023-10-13T08:08:38;13.33;;;3.20;;
7375;SDS011;3728;42.266;24.944;2023-10-13T08:11:14;5.50;;;2.77;;
7375;SDS011;3728;42.266;24.944;2023-10-13T08:14:02;5.27;;;3.00;;
7375;SDS011;3728;42.266;24.944;2023-10-13T08:16:57;9.60;;;3.07;;
7375;SDS011;3728;42.266;24.944;2023-10-13T08:19:29;5.33;;;3.30;;
7375;SDS011;3728;42.266;24.944;2023-10-13T08:22:25;6.87;;;3.33;;
7375;SDS011;3728;42.266;24.944;2023-10-13T08:25:02;193.57;;;17.67;;
7375;SDS011;3728;42.266;24.944;2023-10-13T08:27:49;16.10;;;3.73;;
7375;SDS011;3728;42.266;24.944;2023-10-13T08:30:52;6.30;;;2.90;;
7375;SDS011;3728;42.266;24.944;2023-10-13T08:33:20;7.93;;;3.20;;
7375;SDS011;3728;42.266;24.944;2023-10-13T08:35:52;13.83;;;4.10;;
7375;SDS011;3728;42.266;24.944;2023-10-13T08:38:52;211.70;;;20.47;;
7375;SDS011;3728;42.266;24.944;2023-10-13T08:41:22;6.90;;;2.80;;
7375;SDS011;3728;42.266;24.944;2023-10-13T08:43:50;7.73;;;3.17;;
7375;SDS011;3728;42.266;24.944;2023-10-13T08:46:20;15.37;;;3.23;;
7375;SDS011;3728;42.266;24.944;2023-10-13T08:48:54;84.77;;;10.43;;
7375;SDS011;3728;42.266;24.944;2023-10-13T08:51:35;13.47;;;2.90;;
7375;SDS011;3728;42.266;24.944;2023-10-13T08:54:16;130.00;;;13.10;;
7375;SDS011;3728;42.266;24.944;2023-10-13T08:57:07;6.17;;;3.03;;
7375;SDS011;3728;42.266;24.944;2023-10-13T09:00:01;11.37;;;3.20;;
7375;SDS011;3728;42.266;24.944;2023-10-13T09:02:47;12.83;;;3.03;;
7375;SDS011;3728;42.266;24.944;2023-10-13T09:05:34;6.00;;;2.80;;
7375;SDS011;3728;42.266;24.944;2023-10-13T09:08:08;9.20;;;3.00;;
7375;SDS011;3728;42.266;24.944;2023-10-13T09:10:37;5.40;;;2.67;;
7375;SDS011;3728;42.266;24.944;2023-10-13T09:13:33;7.33;;;2.77;;
7375;SDS011;3728;42.266;24.944;2023-10-13T09:16:11;5.82;;;2.70;;
7375;SDS011;3728;42.266;24.944;2023-10-13T09:19:10;7.03;;;2.70;;
7375;SDS011;3728;42.266;24.944;2023-10-13T09:21:39;5.63;;;3.03;;
7375;SDS011;3728;42.266;24.944;2023-10-13T09:24:10;5.55;;;2.97;;
7375;SDS011;3728;42.266;24.944;2023-10-13T09:26:49;10.48;;;3.45;;
7375;SDS011;3728;42.266;24.944;2023-10-13T09:29:22;6.03;;;3.10;;
7375;SDS011;3728;42.266;24.944;2023-10-13T09:31:58;6.82;;;3.42;;
7375;SDS011;3728;42.266;24.944;2023-10-13T09:34:29;5.55;;;3.45;;
7375;SDS011;3728;42.266;24.944;2023-10-13T09:37:07;7.05;;;3.28;;
7375;SDS011;3728;42.266;24.944;2023-10-13T09:39:37;6.35;;;3.30;;
7375;SDS011;3728;42.266;24.944;2023-10-13T09:42:18;4.47;;;3.38;;
7375;SDS011;3728;42.266;24.944;2023-10-13T09:44:50;15.38;;;3.45;;
7375;SDS011;3728;42.266;24.944;2023-10-13T09:47:20;6.38;;;3.38;;
7375;SDS011;3728;42.266;24.944;2023-10-13T09:50:04;8.60;;;3.30;;
7375;SDS011;3728;42.266;24.944;2023-10-13T09:52:42;8.30;;;3.00;;
7375;SDS011;3728;42.266;24.944;2023-10-13T09:55:16;24.65;;;5.30;;
7375;SDS011;3728;42.266;24.944;2023-10-13T09:58:04;7.82;;;3.47;;
7375;SDS011;3728;42.266;24.944;2023-10-13T10:00:50;5.15;;;2.90;;
7375;SDS011;3728;42.266;24.944;2023-10-13T10:03:24;5.68;;;3.08;;
7375;SDS011;3728;42.266;24.944;2023-10-13T10:06:02;5.07;;;3.25;;
7375;SDS011;3728;42.266;24.944;2023-10-13T10:08:34;7.25;;;3.58;;
7375;SDS011;3728;42.266;24.944;2023-10-13T10:14:10;6.85;;;3.15;;
7375;SDS011;3728;42.266;24.944;2023-10-13T10:17:05;7.95;;;2.97;;
7375;SDS011;3728;42.266;24.944;2023-10-13T10:19:49;10.23;;;3.45;;
7375;SDS011;3728;42.266;24.944;2023-10-13T10:22:28;7.68;;;3.17;;
7375;SDS011;3728;42.266;24.944;2023-10-13T10:25:03;16.33;;;3.80;;
7375;SDS011;3728;42.266;24.944;2023-10-13T10:27:33;12.35;;;2.88;;
7375;SDS011;3728;42.266;24.944;2023-10-13T10:30:02;6.80;;;3.10;;
7375;SDS011;3728;42.266;24.944;2023-10-13T10:32:34;6.15;;;2.95;;
7375;SDS011;3728;42.266;24.944;2023-10-13T10:35:04;7.72;;;3.53;;
7375;SDS011;3728;42.266;24.944;2023-10-13T10:37:47;11.95;;;3.75;;
7375;SDS011;3728;42.266;24.944;2023-10-13T10:40:15;14.35;;;3.90;;
7375;SDS011;3728;42.266;24.944;2023-10-13T10:43:04;9.45;;;3.47;;
7375;SDS011;3728;42.266;24.944;2023-10-13T10:48:57;10.05;;;3.53;;
7375;SDS011;3728;42.266;24.944;2023-10-13T10:51:28;17.13;;;5.18;;
7375;SDS011;3728;42.266;24.944;2023-10-13T10:54:00;11.63;;;3.60;;
7375;SDS011;3728;42.266;24.944;2023-10-13T10:56:38;14.77;;;3.65;;
7375;SDS011;3728;42.266;24.944;2023-10-13T10:59:06;9.45;;;3.75;;
7375;SDS011;3728;42.266;24.944;2023-10-13T11:01:48;6.32;;;3.00;;
7375;SDS011;3728;42.266;24.944;2023-10-13T11:04:19;10.88;;;3.55;;
7375;SDS011;3728;42.266;24.944;2023-10-13T11:06:52;7.13;;;3.50;;
7375;SDS011;3728;42.266;24.944;2023-10-13T11:09:25;7.57;;;3.45;;
7375;SDS011;3728;42.266;24.944;2023-10-13T11:14:41;6.97;;;3.80;;
7375;SDS011;3728;42.266;24.944;2023-10-13T11:17:21;10.27;;;3.60;;
7375;SDS011;3728;42.266;24.944;2023-10-13T11:19:53;7.45;;;3.50;;
7375;SDS011;3728;42.266;24.944;2023-10-13T11:22:22;7.78;;;3.38;;
7375;SDS011;3728;42.266;24.944;2023-10-13T11:24:59;7.35;;;3.47;;
7375;SDS011;3728;42.266;24.944;2023-10-13T11:27:41;5.55;;;3.13;;
7375;SDS011;3728;42.266;24.944;2023-10-13T11:30:21;11.23;;;3.70;;
7375;SDS011;3728;42.266;24.944;2023-10-13T11:33:02;9.73;;;3.03;;
7375;SDS011;3728;42.266;24.944;2023-10-13T11:35:33;7.80;;;3.15;;
7375;SDS011;3728;42.266;24.944;2023-10-13T11:41:14;16.38;;;3.97;;
7375;SDS011;3728;42.266;24.944;2023-10-13T11:46:21;6.28;;;2.70;;
7375;SDS011;3728;42.266;24.944;2023-10-13T11:49:08;8.93;;;3.22;;
7375;SDS011;3728;42.266;24.944;2023-10-13T11:51:43;12.07;;;3.40;;
7375;SDS011;3728;42.266;24.944;2023-10-13T11:54:16;10.80;;;3.47;;
7375;SDS011;3728;42.266;24.944;2023-10-13T11:56:46;19.77;;;12.50;;
7375;SDS011;3728;42.266;24.944;2023-10-13T11:59:15;17.70;;;4.65;;
7375;SDS011;3728;42.266;24.944;2023-10-13T12:01:51;14.65;;;3.65;;
7375;SDS011;3728;42.266;24.944;2023-10-13T12:04:38;17.45;;;3.40;;
7375;SDS011;3728;42.266;24.944;2023-10-13T12:07:20;8.50;;;3.45;;
7375;SDS011;3728;42.266;24.944;2023-10-13T12:10:12;7.32;;;3.33;;
7375;SDS011;3728;42.266;24.944;2023-10-13T12:13:00;13.48;;;3.15;;
7375;SDS011;3728;42.266;24.944;2023-10-13T12:15:33;4.78;;;2.72;;
7375;SDS011;3728;42.266;24.944;2023-10-13T12:18:04;6.07;;;2.75;;
7375;SDS011;3728;42.266;24.944;2023-10-13T12:20:32;5.55;;;2.90;;
7375;SDS011;3728;42.266;24.944;2023-10-13T12:23:02;7.75;;;2.90;;
7375;SDS011;3728;42.266;24.944;2023-10-13T12:25:43;13.35;;;3.05;;
7375;SDS011;3728;42.266;24.944;2023-10-13T12:28:22;98.47;;;9.98;;
7375;SDS011;3728;42.266;24.944;2023-10-13T12:30:54;26.98;;;4.80;;
7375;SDS011;3728;42.266;24.944;2023-10-13T12:33:24;6.40;;;2.90;;
7375;SDS011;3728;42.266;24.944;2023-10-13T12:36:04;8.45;;;3.17;;
7375;SDS011;3728;42.266;24.944;2023-10-13T12:38:41;11.90;;;6.88;;
7375;SDS011;3728;42.266;24.944;2023-10-13T12:41:15;13.38;;;3.67;;
7375;SDS011;3728;42.266;24.944;2023-10-13T12:44:03;19.52;;;4.00;;
7375;SDS011;3728;42.266;24.944;2023-10-13T12:46:51;22.80;;;3.90;;
7375;SDS011;3728;42.266;24.944;2023-10-13T12:49:39;13.85;;;3.13;;
7375;SDS011;3728;42.266;24.944;2023-10-13T12:52:11;11.27;;;3.10;;
7375;SDS011;3728;42.266;24.944;2023-10-13T12:54:46;14.93;;;3.30;;
7375;SDS011;3728;42.266;24.944;2023-10-13T12:57:25;30.17;;;4.20;;
7375;SDS011;3728;42.266;24.944;2023-10-13T12:59:54;12.63;;;2.88;;
7375;SDS011;3728;42.266;24.944;2023-10-13T13:02:23;7.07;;;2.60;;
7375;SDS011;3728;42.266;24.944;2023-10-13T13:04:54;7.32;;;3.00;;
7375;SDS011;3728;42.266;24.944;2023-10-13T13:07:39;4.28;;;2.47;;
7375;SDS011;3728;42.266;24.944;2023-10-13T13:10:14;6.10;;;2.63;;
7375;SDS011;3728;42.266;24.944;2023-10-13T13:12:41;10.63;;;3.22;;
7375;SDS011;3728;42.266;24.944;2023-10-13T13:15:09;13.70;;;3.10;;
7375;SDS011;3728;42.266;24.944;2023-10-13T13:17:42;6.35;;;2.55;;
7375;SDS011;3728;42.266;24.944;2023-10-13T13:20:09;4.88;;;2.30;;
7375;SDS011;3728;42.266;24.944;2023-10-13T13:22:53;4.63;;;2.65;;
7375;SDS011;3728;42.266;24.944;2023-10-13T13:25:21;20.52;;;3.72;;
7375;SDS011;3728;42.266;24.944;2023-10-13T13:27:57;7.57;;;2.63;;
7375;SDS011;3728;42.266;24.944;2023-10-13T13:30:31;12.70;;;3.83;;
7375;SDS011;3728;42.266;24.944;2023-10-13T13:33:01;14.30;;;3.38;;
7375;SDS011;3728;42.266;24.944;2023-10-13T13:35:38;5.10;;;2.70;;
7375;SDS011;3728;42.266;24.944;2023-10-13T13:38:12;6.85;;;3.00;;
7375;SDS011;3728;42.266;24.944;2023-10-13T13:40:48;10.95;;;3.30;;
7375;SDS011;3728;42.266;24.944;2023-10-13T13:43:16;4.13;;;2.28;;
7375;SDS011;3728;42.266;24.944;2023-10-13T13:46:05;10.32;;;2.80;;
7375;SDS011;3728;42.266;24.944;2023-10-13T13:48:36;4.03;;;2.22;;
7375;SDS011;3728;42.266;24.944;2023-10-13T13:51:05;7.45;;;2.50;;
7375;SDS011;3728;42.266;24.944;2023-10-13T13:53:41;5.30;;;2.40;;
7375;SDS011;3728;42.266;24.944;2023-10-13T13:56:12;6.35;;;2.20;;
7375;SDS011;3728;42.266;24.944;2023-10-13T13:58:44;29.30;;;4.55;;
7375;SDS011;3728;42.266;24.944;2023-10-13T14:01:13;4.15;;;1.92;;
7375;SDS011;3728;42.266;24.944;2023-10-13T14:03:53;25.73;;;4.18;;
7375;SDS011;3728;42.266;24.944;2023-10-13T14:06:29;6.32;;;2.50;;
7375;SDS011;3728;42.266;24.944;2023-10-13T14:08:57;4.95;;;2.17;;
7375;SDS011;3728;42.266;24.944;2023-10-13T14:11:32;3.67;;;2.08;;
7375;SDS011;3728;42.266;24.944;2023-10-13T14:14:10;17.77;;;3.58;;
7375;SDS011;3728;42.266;24.944;2023-10-13T14:16:43;13.32;;;3.28;;
7375;SDS011;3728;42.266;24.944;2023-10-13T14:19:16;18.05;;;3.60;;
7375;SDS011;3728;42.266;24.944;2023-10-13T14:21:57;9.48;;;3.40;;
7375;SDS011;3728;42.266;24.944;2023-10-13T14:24:33;9.55;;;2.95;;
7375;SDS011;3728;42.266;24.944;2023-10-13T14:27:10;7.30;;;3.35;;
7375;SDS011;3728;42.266;24.944;2023-10-13T14:29:39;11.65;;;3.45;;
7375;SDS011;3728;42.266;24.944;2023-10-13T14:32:12;13.13;;;3.42;;
7375;SDS011;3728;42.266;24.944;2023-10-13T14:34:44;15.88;;;3.55;;
7375;SDS011;3728;42.266;24.944;2023-10-13T14:37:21;24.27;;;4.20;;
7375;SDS011;3728;42.266;24.944;2023-10-13T14:39:58;10.23;;;4.22;;
7375;SDS011;3728;42.266;24.944;2023-10-13T14:42:27;29.10;;;4.90;;
7375;SDS011;3728;42.266;24.944;2023-10-13T14:45:02;30.83;;;4.10;;
7375;SDS011;3728;42.266;24.944;2023-10-13T14:47:42;19.75;;;4.50;;
7375;SDS011;3728;42.266;24.944;2023-10-13T14:50:12;10.93;;;4.75;;
7375;SDS011;3728;42.266;24.944;2023-10-13T14:52:49;8.43;;;6.15;;
7375;SDS011;3728;42.266;24.944;2023-10-13T14:55:18;19.73;;;4.88;;
7375;SDS011;3728;42.266;24.944;2023-10-13T14:58:09;14.30;;;5.07;;
7375;SDS011;3728;42.266;24.944;2023-10-13T15:00:58;9.95;;;5.00;;
7375;SDS011;3728;42.266;24.944;2023-10-13T15:03:27;6.55;;;4.93;;
7375;SDS011;3728;42.266;24.944;2023-10-13T15:05:57;9.38;;;5.10;;
7375;SDS011;3728;42.266;24.944;2023-10-13T15:08:24;8.35;;;5.50;;
7375;SDS011;3728;42.266;24.944;2023-10-13T15:10:54;16.20;;;5.38;;
7375;SDS011;3728;42.266;24.944;2023-10-13T15:13:24;12.25;;;4.35;;
7375;SDS011;3728;42.266;24.944;2023-10-13T15:15:52;12.77;;;4.13;;
7375;SDS011;3728;42.266;24.944;2023-10-13T15:18:20;9.93;;;3.78;;
7375;SDS011;3728;42.266;24.944;2023-10-13T15:20:49;8.80;;;3.40;;
7375;SDS011;3728;42.266;24.944;2023-10-13T15:23:17;9.40;;;3.17;;
7375;SDS011;3728;42.266;24.944;2023-10-13T15:25:49;7.93;;;2.95;;
7375;SDS011;3728;42.266;24.944;2023-10-13T15:28:19;8.65;;;2.60;;
7375;SDS011;3728;42.266;24.944;2023-10-13T15:30:47;4.65;;;2.75;;
7375;SDS011;3728;42.266;24.944;2023-10-13T15:33:28;5.90;;;2.33;;
7375;SDS011;3728;42.266;24.944;2023-10-13T15:35:57;7.10;;;2.17;;
7375;SDS011;3728;42.266;24.944;2023-10-13T15:38:25;5.68;;;2.30;;
7375;SDS011;3728;42.266;24.944;2023-10-13T15:40:54;6.95;;;2.17;;
7375;SDS011;3728;42.266;24.944;2023-10-13T15:43:24;9.80;;;2.88;;
7375;SDS011;3728;42.266;24.944;2023-10-13T15:45:51;13.65;;;2.58;;
7375;SDS011;3728;42.266;24.944;2023-10-13T15:48:19;8.13;;;2.53;;
7375;SDS011;3728;42.266;24.944;2023-10-13T15:50:51;8.02;;;2.33;;
7375;SDS011;3728;42.266;24.944;2023-10-13T15:53:20;13.55;;;2.35;;
7375;SDS011;3728;42.266;24.944;2023-10-13T15:55:52;6.93;;;2.03;;
7375;SDS011;3728;42.266;24.944;2023-10-13T15:58:20;18.33;;;2.85;;
7375;SDS011;3728;42.266;24.944;2023-10-13T16:00:47;21.80;;;3.50;;